Aeroporto :







RITROVATECI SU...

 
LOGIN :

Iscrizione | Disclaimer

   EN    FR    IT 

 









Sommario :    VFR   VFR Marginale   IFR   IFR Intensivo   IFR Molto Intensivo
Visibilità : 
Base nubi : 
>= 8 km
>= 3000ft
5 / 8 km
1000 / 3000 ft
1500m / 5 km
500 / 1000 ft
800 / 1500m
200 / 500 ft
< 800m
< 200 ft
Simboli :   Temporali  Nebbia  Neve Forte  Precipitazioni Forti  Vento > 20 kt







- Altitudine del aeroporto : 228 ft


KFSO - Franklin County State

ULTIMO METAR :
  • 230856Z AUTO 17004KT 10SM RA SCT050 OVC065 23/20 A2974 RMK AO2 T02300203

METARs OBSOLETI :
  • 230836Z AUTO 17006KT 10SM -RA BKN050 OVC065 24/20 A2975 RMK AO2 T02350200
  • 230815Z AUTO 17006KT 10SM DZ SCT050 BKN065 OVC080 24/20 A2975 RMK AO2 T02370196
  • 230756Z AUTO 21003KT 10SM OVC080 25/19 A2976 RMK AO2 T02450191
  • 230735Z AUTO 19005KT 10SM OVC080 25/19 A2975 RMK AO2 T02490190
  • 230716Z AUTO 19006KT 10SM BKN090 BKN110 25/19 A2975 RMK AO2 T02470191
  • 230655Z AUTO 19005KT 10SM OVC110 25/19 A2975 RMK AO2 T02500191
  • 230635Z AUTO 19006KT 10SM SCT085 OVC100 25/19 A2976 RMK AO2 T02500191
  • 230615Z AUTO 19007KT 150V210 10SM OVC100 25/19 A2976 RMK AO2 T02480191

TAF N/A
Nessun NOTAM noto per questo aeroporto.



MetMap, La meteo Aeronautica in un colpo d'occhio ! - Copyright ORBIFLY Dicembre 2007 - Disclaimer

ORBIFLY MET'MAP TEAM :

Programmazione e sviluppo : Alexandra Zaïnal
Concezione e sviluppo : Baudouin d'Aumeries
Co-Programmazione e sviluppo : Marc-Olivier Méhu
Supporto tecnico e logistico : Manuel Goepfert
Aiuto per la traduzione : Arnaldo La Scala

Contatto : metmap@orbifly.com




FONTI E CREDITI :

   NOAA